sensor_id;sensor_type;location;lat;lon;timestamp;pressure;altitude;pressure_sealevel;temperature;humidity
74958;BME280;63741;42.624;26.276;2023-03-14T00:01:16;100194.50;;;4.15;52.87
74958;BME280;63741;42.624;26.276;2023-03-14T00:03:43;100185.31;;;4.05;52.28
74958;BME280;63741;42.624;26.276;2023-03-14T00:06:11;100173.56;;;4.15;53.22
74958;BME280;63741;42.624;26.276;2023-03-14T00:08:39;100188.19;;;3.99;53.71
74958;BME280;63741;42.624;26.276;2023-03-14T00:11:08;100180.22;;;4.22;52.74
74958;BME280;63741;42.624;26.276;2023-03-14T00:13:36;100181.28;;;4.18;52.42
74958;BME280;63741;42.624;26.276;2023-03-14T00:16:08;100186.91;;;4.29;50.62
74958;BME280;63741;42.624;26.276;2023-03-14T00:18:37;100188.75;;;4.07;50.75
74958;BME280;63741;42.624;26.276;2023-03-14T00:21:06;100184.94;;;3.94;51.71
74958;BME280;63741;42.624;26.276;2023-03-14T00:23:35;100182.38;;;4.13;51.65
74958;BME280;63741;42.624;26.276;2023-03-14T00:26:05;100180.28;;;4.00;51.79
74958;BME280;63741;42.624;26.276;2023-03-14T00:28:32;100181.84;;;3.84;51.70
74958;BME280;63741;42.624;26.276;2023-03-14T00:31:01;100178.34;;;3.84;51.77
74958;BME280;63741;42.624;26.276;2023-03-14T00:33:28;100190.31;;;3.69;52.66
74958;BME280;63741;42.624;26.276;2023-03-14T00:35:57;100185.06;;;3.47;52.32
74958;BME280;63741;42.624;26.276;2023-03-14T00:38:25;100188.06;;;3.38;52.72
74958;BME280;63741;42.624;26.276;2023-03-14T00:40:53;100184.03;;;3.51;52.40
74958;BME280;63741;42.624;26.276;2023-03-14T00:43:21;100178.19;;;3.22;53.19
74958;BME280;63741;42.624;26.276;2023-03-14T00:45:51;100173.69;;;3.04;54.17
74958;BME280;63741;42.624;26.276;2023-03-14T00:48:19;100184.34;;;2.98;54.99
74958;BME280;63741;42.624;26.276;2023-03-14T00:50:46;100185.34;;;2.95;54.68
74958;BME280;63741;42.624;26.276;2023-03-14T00:53:14;100173.69;;;3.04;54.80
74958;BME280;63741;42.624;26.276;2023-03-14T00:55:42;100173.28;;;2.91;54.80
74958;BME280;63741;42.624;26.276;2023-03-14T00:58:11;100178.59;;;3.12;55.60
74958;BME280;63741;42.624;26.276;2023-03-14T01:00:39;100179.69;;;3.06;54.81
74958;BME280;63741;42.624;26.276;2023-03-14T01:03:07;100167.00;;;3.19;55.37
74958;BME280;63741;42.624;26.276;2023-03-14T01:05:35;100172.97;;;2.99;56.05
74958;BME280;63741;42.624;26.276;2023-03-14T01:08:02;100164.94;;;3.05;55.92
74958;BME280;63741;42.624;26.276;2023-03-14T01:10:29;100155.44;;;3.24;55.42
74958;BME280;63741;42.624;26.276;2023-03-14T01:12:57;100149.25;;;3.05;55.97
74958;BME280;63741;42.624;26.276;2023-03-14T01:15:24;100152.59;;;3.09;55.76
74958;BME280;63741;42.624;26.276;2023-03-14T01:17:51;100153.69;;;3.25;55.40
74958;BME280;63741;42.624;26.276;2023-03-14T01:20:18;100151.03;;;3.26;55.36
74958;BME280;63741;42.624;26.276;2023-03-14T01:22:45;100146.59;;;3.28;55.24
74958;BME280;63741;42.624;26.276;2023-03-14T01:25:14;100145.06;;;3.23;55.50
74958;BME280;63741;42.624;26.276;2023-03-14T01:27:42;100139.03;;;3.21;55.36
74958;BME280;63741;42.624;26.276;2023-03-14T01:30:10;100139.84;;;3.23;54.50
74958;BME280;63741;42.624;26.276;2023-03-14T01:32:38;100138.63;;;3.32;54.85
74958;BME280;63741;42.624;26.276;2023-03-14T01:35:06;100127.50;;;3.26;54.47
74958;BME280;63741;42.624;26.276;2023-03-14T01:37:34;100130.22;;;3.23;53.78
74958;BME280;63741;42.624;26.276;2023-03-14T01:40:02;100127.13;;;3.36;53.50
74958;BME280;63741;42.624;26.276;2023-03-14T01:42:30;100137.25;;;3.21;54.23
74958;BME280;63741;42.624;26.276;2023-03-14T01:44:59;100127.50;;;3.26;53.60
74958;BME280;63741;42.624;26.276;2023-03-14T01:47:27;100126.09;;;3.40;52.91
74958;BME280;63741;42.624;26.276;2023-03-14T01:50:08;100131.75;;;3.29;52.86
74958;BME280;63741;42.624;26.276;2023-03-14T01:52:42;100117.09;;;3.25;53.55
74958;BME280;63741;42.624;26.276;2023-03-14T01:55:29;100120.13;;;3.14;53.29
74958;BME280;63741;42.624;26.276;2023-03-14T01:58:01;100120.13;;;3.14;52.96
74958;BME280;63741;42.624;26.276;2023-03-14T02:00:30;100116.06;;;3.29;52.31
74958;BME280;63741;42.624;26.276;2023-03-14T02:03:02;100118.75;;;3.27;51.61
74958;BME280;63741;42.624;26.276;2023-03-14T02:05:35;100112.22;;;3.38;51.66
74958;BME280;63741;42.624;26.276;2023-03-14T02:08:15;100109.88;;;3.32;52.08
74958;BME280;63741;42.624;26.276;2023-03-14T02:10:52;100110.28;;;3.21;53.10
74958;BME280;63741;42.624;26.276;2023-03-14T02:13:47;100108.41;;;3.24;52.87
74958;BME280;63741;42.624;26.276;2023-03-14T02:16:41;100101.41;;;3.03;54.64
74958;BME280;63741;42.624;26.276;2023-03-14T02:22:53;100108.19;;;2.85;54.78
74958;BME280;63741;42.624;26.276;2023-03-14T02:28:26;100115.81;;;2.68;55.20
74958;BME280;63741;42.624;26.276;2023-03-14T02:30:59;100110.41;;;2.49;55.20
74958;BME280;63741;42.624;26.276;2023-03-14T02:33:26;100110.31;;;2.52;55.67
74958;BME280;63741;42.624;26.276;2023-03-14T02:35:58;100112.13;;;2.50;55.50
74958;BME280;63741;42.624;26.276;2023-03-14T02:38:48;100104.94;;;2.33;54.72
74958;BME280;63741;42.624;26.276;2023-03-14T02:41:18;100110.34;;;2.27;56.40
74958;BME280;63741;42.624;26.276;2023-03-14T02:43:55;100111.41;;;2.46;54.03
74958;BME280;63741;42.624;26.276;2023-03-14T02:46:22;100113.44;;;2.62;54.18
74958;BME280;63741;42.624;26.276;2023-03-14T02:49:10;100106.06;;;2.73;54.10
74958;BME280;63741;42.624;26.276;2023-03-14T02:51:39;100108.94;;;2.89;53.32
74958;BME280;63741;42.624;26.276;2023-03-14T02:54:08;100113.75;;;2.99;53.50
74958;BME280;63741;42.624;26.276;2023-03-14T02:56:35;100100.25;;;2.88;53.23
74958;BME280;63741;42.624;26.276;2023-03-14T02:59:04;100108.63;;;2.96;53.84
74958;BME280;63741;42.624;26.276;2023-03-14T03:01:59;100107.28;;;2.63;54.20
74958;BME280;63741;42.624;26.276;2023-03-14T03:04:26;100102.13;;;2.61;54.82
74958;BME280;63741;42.624;26.276;2023-03-14T03:06:53;100090.34;;;2.51;54.79
74958;BME280;63741;42.624;26.276;2023-03-14T03:09:20;100093.63;;;2.33;55.55
74958;BME280;63741;42.624;26.276;2023-03-14T03:11:47;100091.13;;;2.53;54.93
74958;BME280;63741;42.624;26.276;2023-03-14T03:14:19;100094.47;;;2.57;55.06
74958;BME280;63741;42.624;26.276;2023-03-14T03:16:45;100096.84;;;2.39;56.75
74958;BME280;63741;42.624;26.276;2023-03-14T03:19:13;100087.69;;;2.27;56.72
74958;BME280;63741;42.624;26.276;2023-03-14T03:21:40;100086.72;;;2.07;57.73
74958;BME280;63741;42.624;26.276;2023-03-14T03:24:07;100095.59;;;2.26;57.79
74958;BME280;63741;42.624;26.276;2023-03-14T03:26:35;100090.00;;;2.37;56.92
74958;BME280;63741;42.624;26.276;2023-03-14T03:29:04;100085.47;;;2.42;56.88
74958;BME280;63741;42.624;26.276;2023-03-14T03:31:31;100090.78;;;2.39;56.39
74958;BME280;63741;42.624;26.276;2023-03-14T03:33:58;100090.78;;;2.39;55.75
74958;BME280;63741;42.624;26.276;2023-03-14T03:36:26;100096.25;;;2.33;56.23
74958;BME280;63741;42.624;26.276;2023-03-14T03:38:53;100089.78;;;2.43;56.12
74958;BME280;63741;42.624;26.276;2023-03-14T03:41:20;100085.31;;;2.45;56.53
74958;BME280;63741;42.624;26.276;2023-03-14T03:43:49;100085.31;;;2.45;55.70
74958;BME280;63741;42.624;26.276;2023-03-14T03:46:16;100087.06;;;2.46;56.35
74958;BME280;63741;42.624;26.276;2023-03-14T03:48:43;100080.94;;;2.22;55.94
74958;BME280;63741;42.624;26.276;2023-03-14T03:51:13;100090.03;;;2.12;55.73
74958;BME280;63741;42.624;26.276;2023-03-14T03:53:41;100089.19;;;2.11;56.96
74958;BME280;63741;42.624;26.276;2023-03-14T03:56:11;100087.06;;;1.97;56.63
74958;BME280;63741;42.624;26.276;2023-03-14T03:58:39;100082.31;;;2.09;57.27
74958;BME280;63741;42.624;26.276;2023-03-14T04:01:06;100083.16;;;2.09;57.71
74958;BME280;63741;42.624;26.276;2023-03-14T04:03:34;100086.47;;;2.38;57.51
74958;BME280;63741;42.624;26.276;2023-03-14T04:06:05;100088.41;;;2.33;56.89
74958;BME280;63741;42.624;26.276;2023-03-14T04:08:35;100080.41;;;2.37;57.97
74958;BME280;63741;42.624;26.276;2023-03-14T04:11:03;100081.13;;;2.41;57.38
74958;BME280;63741;42.624;26.276;2023-03-14T04:13:48;100074.44;;;2.34;57.73
74958;BME280;63741;42.624;26.276;2023-03-14T04:16:21;100073.13;;;2.22;58.14
74958;BME280;63741;42.624;26.276;2023-03-14T04:18:50;100067.13;;;2.20;57.72
74958;BME280;63741;42.624;26.276;2023-03-14T04:21:20;100065.09;;;2.28;58.28
74958;BME280;63741;42.624;26.276;2023-03-14T04:23:52;100070.47;;;2.23;58.30
74958;BME280;63741;42.624;26.276;2023-03-14T04:26:19;100083.13;;;2.34;57.77
74958;BME280;63741;42.624;26.276;2023-03-14T04:28:46;100070.81;;;2.38;57.97
74958;BME280;63741;42.624;26.276;2023-03-14T04:31:16;100073.41;;;2.61;57.25
74958;BME280;63741;42.624;26.276;2023-03-14T04:33:45;100075.63;;;2.48;57.36
74958;BME280;63741;42.624;26.276;2023-03-14T04:36:15;100072.81;;;2.55;57.11
74958;BME280;63741;42.624;26.276;2023-03-14T04:38:42;100080.22;;;2.65;56.01
74958;BME280;63741;42.624;26.276;2023-03-14T04:41:11;100077.91;;;2.58;56.07
74958;BME280;63741;42.624;26.276;2023-03-14T04:43:39;100075.22;;;2.36;57.07
74958;BME280;63741;42.624;26.276;2023-03-14T04:46:07;100075.97;;;2.16;57.04
74958;BME280;63741;42.624;26.276;2023-03-14T04:48:35;100072.22;;;2.23;57.00
74958;BME280;63741;42.624;26.276;2023-03-14T04:51:05;100073.81;;;2.27;56.64
74958;BME280;63741;42.624;26.276;2023-03-14T04:53:33;100072.97;;;2.26;56.75
74958;BME280;63741;42.624;26.276;2023-03-14T04:56:06;100078.56;;;2.16;56.32
74958;BME280;63741;42.624;26.276;2023-03-14T04:58:36;100073.69;;;2.07;56.85
74958;BME280;63741;42.624;26.276;2023-03-14T05:01:05;100071.59;;;2.16;56.21
74958;BME280;63741;42.624;26.276;2023-03-14T05:03:51;100066.38;;;2.16;56.23
74958;BME280;63741;42.624;26.276;2023-03-14T05:06:56;100077.00;;;2.35;56.62
74958;BME280;63741;42.624;26.276;2023-03-14T05:09:45;100068.03;;;2.42;55.75
74958;BME280;63741;42.624;26.276;2023-03-14T05:12:22;100065.66;;;2.60;55.87
74958;BME280;63741;42.624;26.276;2023-03-14T05:15:15;100073.88;;;2.49;56.14
74958;BME280;63741;42.624;26.276;2023-03-14T05:18:18;100081.22;;;2.85;55.56
74958;BME280;63741;42.624;26.276;2023-03-14T05:21:03;100074.31;;;3.06;54.81
74958;BME280;63741;42.624;26.276;2023-03-14T05:23:49;100066.28;;;3.32;54.53
74958;BME280;63741;42.624;26.276;2023-03-14T05:26:31;100073.09;;;3.57;54.38
74958;BME280;63741;42.624;26.276;2023-03-14T05:29:24;100074.06;;;3.74;54.11
74958;BME280;63741;42.624;26.276;2023-03-14T05:32:11;100072.97;;;4.00;53.96
74958;BME280;63741;42.624;26.276;2023-03-14T05:34:53;100066.59;;;4.06;54.29
74958;BME280;63741;42.624;26.276;2023-03-14T05:37:44;100070.38;;;4.19;54.17
74958;BME280;63741;42.624;26.276;2023-03-14T05:40:17;100074.66;;;4.41;54.07
74958;BME280;63741;42.624;26.276;2023-03-14T05:42:59;100078.50;;;4.52;54.37
74958;BME280;63741;42.624;26.276;2023-03-14T05:45:45;100072.47;;;4.50;54.68
74958;BME280;63741;42.624;26.276;2023-03-14T05:48:30;100070.44;;;4.57;54.43
74958;BME280;63741;42.624;26.276;2023-03-14T05:51:35;100078.94;;;4.62;54.07
74958;BME280;63741;42.624;26.276;2023-03-14T05:54:14;100081.31;;;4.86;53.16
74958;BME280;63741;42.624;26.276;2023-03-14T05:56:41;100070.19;;;4.99;52.66
74958;BME280;63741;42.624;26.276;2023-03-14T05:59:14;100079.16;;;5.13;52.85
74958;BME280;63741;42.624;26.276;2023-03-14T06:01:57;100071.50;;;5.27;52.02
74958;BME280;63741;42.624;26.276;2023-03-14T06:04:28;100065.16;;;5.31;53.81
74958;BME280;63741;42.624;26.276;2023-03-14T06:06:58;100069.84;;;5.07;54.36
74958;BME280;63741;42.624;26.276;2023-03-14T06:09:25;100066.84;;;4.78;55.19
74958;BME280;63741;42.624;26.276;2023-03-14T06:11:55;100065.47;;;4.89;55.15
74958;BME280;63741;42.624;26.276;2023-03-14T06:14:23;100077.00;;;5.03;54.71
74958;BME280;63741;42.624;26.276;2023-03-14T06:16:51;100068.63;;;4.95;55.47
74958;BME280;63741;42.624;26.276;2023-03-14T06:19:21;100068.88;;;5.27;54.57
74958;BME280;63741;42.624;26.276;2023-03-14T06:21:48;100068.72;;;5.30;54.38
74958;BME280;63741;42.624;26.276;2023-03-14T06:24:15;100068.81;;;5.28;54.90
74958;BME280;63741;42.624;26.276;2023-03-14T06:26:46;100067.50;;;5.37;54.70
74958;BME280;63741;42.624;26.276;2023-03-14T06:29:13;100066.91;;;5.49;55.34
74958;BME280;63741;42.624;26.276;2023-03-14T06:31:41;100056.56;;;5.81;54.18
74958;BME280;63741;42.624;26.276;2023-03-14T06:34:09;100061.72;;;5.82;53.20
74958;BME280;63741;42.624;26.276;2023-03-14T06:36:37;100076.56;;;6.01;53.34
74958;BME280;63741;42.624;26.276;2023-03-14T06:39:04;100070.44;;;6.18;53.21
74958;BME280;63741;42.624;26.276;2023-03-14T06:41:34;100075.31;;;6.41;50.94
74958;BME280;63741;42.624;26.276;2023-03-14T06:44:01;100070.53;;;6.81;51.00
74958;BME280;63741;42.624;26.276;2023-03-14T06:46:28;100069.75;;;6.95;50.48
74958;BME280;63741;42.624;26.276;2023-03-14T06:48:55;100065.34;;;7.87;49.46
74958;BME280;63741;42.624;26.276;2023-03-14T06:51:22;100067.72;;;7.62;48.93
74958;BME280;63741;42.624;26.276;2023-03-14T06:53:49;100063.19;;;7.33;49.23
74958;BME280;63741;42.624;26.276;2023-03-14T06:56:19;100068.50;;;7.48;48.87
74958;BME280;63741;42.624;26.276;2023-03-14T06:58:46;100066.25;;;7.42;48.94
74958;BME280;63741;42.624;26.276;2023-03-14T07:01:26;100062.66;;;8.17;47.50
74958;BME280;63741;42.624;26.276;2023-03-14T07:03:59;100066.78;;;8.64;47.10
74958;BME280;63741;42.624;26.276;2023-03-14T07:06:27;100064.94;;;9.07;45.72
74958;BME280;63741;42.624;26.276;2023-03-14T07:08:56;100066.56;;;9.23;45.05
74958;BME280;63741;42.624;26.276;2023-03-14T07:11:23;100064.28;;;9.04;44.96
74958;BME280;63741;42.624;26.276;2023-03-14T07:13:50;100057.00;;;8.80;44.48
74958;BME280;63741;42.624;26.276;2023-03-14T07:16:18;100062.56;;;8.76;43.73
74958;BME280;63741;42.624;26.276;2023-03-14T07:18:45;100052.81;;;8.91;45.59
74958;BME280;63741;42.624;26.276;2023-03-14T07:21:12;100055.31;;;8.51;47.26
74958;BME280;63741;42.624;26.276;2023-03-14T07:23:39;100056.81;;;8.69;46.14
74958;BME280;63741;42.624;26.276;2023-03-14T07:26:07;100047.69;;;8.60;45.98
74958;BME280;63741;42.624;26.276;2023-03-14T07:28:37;100048.78;;;8.85;46.33
74958;BME280;63741;42.624;26.276;2023-03-14T07:31:09;100045.41;;;8.69;45.14
74958;BME280;63741;42.624;26.276;2023-03-14T07:33:37;100050.28;;;8.89;45.75
74958;BME280;63741;42.624;26.276;2023-03-14T07:36:04;100046.41;;;8.95;45.91
74958;BME280;63741;42.624;26.276;2023-03-14T07:38:31;100050.72;;;8.96;45.79
74958;BME280;63741;42.624;26.276;2023-03-14T07:41:15;100042.47;;;9.15;46.02
74958;BME280;63741;42.624;26.276;2023-03-14T07:44:04;100041.31;;;9.19;46.64
74958;BME280;63741;42.624;26.276;2023-03-14T07:46:31;100041.41;;;9.44;46.27
74958;BME280;63741;42.624;26.276;2023-03-14T07:48:58;100044.28;;;9.54;46.82
74958;BME280;63741;42.624;26.276;2023-03-14T07:51:25;100037.56;;;9.35;46.46
74958;BME280;63741;42.624;26.276;2023-03-14T07:53:52;100045.34;;;9.64;45.85
74958;BME280;63741;42.624;26.276;2023-03-14T07:56:19;100028.84;;;9.48;47.71
74958;BME280;63741;42.624;26.276;2023-03-14T07:58:46;100033.94;;;9.76;45.82
74958;BME280;63741;42.624;26.276;2023-03-14T08:01:13;100028.69;;;10.02;45.37
74958;BME280;63741;42.624;26.276;2023-03-14T08:03:40;100027.94;;;9.74;46.25
74958;BME280;63741;42.624;26.276;2023-03-14T08:06:06;100024.91;;;9.41;47.17
74958;BME280;63741;42.624;26.276;2023-03-14T08:08:33;100023.19;;;9.92;47.39
74958;BME280;63741;42.624;26.276;2023-03-14T08:11:09;100019.72;;;9.92;45.61
74958;BME280;63741;42.624;26.276;2023-03-14T08:13:37;100022.47;;;10.41;44.57
74958;BME280;63741;42.624;26.276;2023-03-14T08:16:04;100013.16;;;10.85;43.99
74958;BME280;63741;42.624;26.276;2023-03-14T08:18:32;100014.41;;;10.79;43.34
74958;BME280;63741;42.624;26.276;2023-03-14T08:20:58;100008.06;;;11.30;43.00
74958;BME280;63741;42.624;26.276;2023-03-14T08:23:25;100001.91;;;11.29;43.70
74958;BME280;63741;42.624;26.276;2023-03-14T08:25:52;100005.66;;;11.27;42.16
74958;BME280;63741;42.624;26.276;2023-03-14T08:28:19;100002.44;;;10.50;42.08
74958;BME280;63741;42.624;26.276;2023-03-14T08:30:46;99986.78;;;10.83;42.08
74958;BME280;63741;42.624;26.276;2023-03-14T08:33:13;99978.94;;;11.06;41.77
74958;BME280;63741;42.624;26.276;2023-03-14T08:35:40;99969.41;;;11.74;42.17
74958;BME280;63741;42.624;26.276;2023-03-14T08:38:07;99972.84;;;12.21;41.67
74958;BME280;63741;42.624;26.276;2023-03-14T08:40:34;99969.09;;;12.34;41.33
74958;BME280;63741;42.624;26.276;2023-03-14T08:43:01;99968.25;;;12.23;39.09
74958;BME280;63741;42.624;26.276;2023-03-14T08:45:28;99963.56;;;12.04;37.57
74958;BME280;63741;42.624;26.276;2023-03-14T08:47:54;99964.00;;;11.75;37.44
74958;BME280;63741;42.624;26.276;2023-03-14T08:50:21;99967.09;;;11.69;38.93
74958;BME280;63741;42.624;26.276;2023-03-14T08:52:49;99968.56;;;11.73;38.56
74958;BME280;63741;42.624;26.276;2023-03-14T08:55:16;99959.00;;;11.83;38.14
74958;BME280;63741;42.624;26.276;2023-03-14T08:57:43;99962.13;;;12.11;37.24
74958;BME280;63741;42.624;26.276;2023-03-14T09:00:10;99951.84;;;12.40;37.90
74958;BME280;63741;42.624;26.276;2023-03-14T09:02:41;99946.06;;;12.89;37.91
74958;BME280;63741;42.624;26.276;2023-03-14T09:05:10;99935.81;;;13.17;36.33
74958;BME280;63741;42.624;26.276;2023-03-14T09:07:38;99938.38;;;13.07;36.15
74958;BME280;63741;42.624;26.276;2023-03-14T09:10:06;99933.69;;;12.68;37.31
74958;BME280;63741;42.624;26.276;2023-03-14T09:12:34;99934.84;;;12.31;37.24
74958;BME280;63741;42.624;26.276;2023-03-14T09:15:01;99932.19;;;12.43;37.42
74958;BME280;63741;42.624;26.276;2023-03-14T09:17:28;99921.00;;;12.71;37.80
74958;BME280;63741;42.624;26.276;2023-03-14T09:19:55;99912.47;;;13.00;37.04
74958;BME280;63741;42.624;26.276;2023-03-14T09:22:25;99911.00;;;12.75;36.99
74958;BME280;63741;42.624;26.276;2023-03-14T09:24:52;99909.06;;;13.09;37.01
74958;BME280;63741;42.624;26.276;2023-03-14T09:27:19;99904.91;;;12.52;37.05
74958;BME280;63741;42.624;26.276;2023-03-14T09:29:46;99898.09;;;13.02;36.65
74958;BME280;63741;42.624;26.276;2023-03-14T09:32:13;99898.31;;;13.52;35.62
74958;BME280;63741;42.624;26.276;2023-03-14T09:34:40;99889.63;;;13.71;35.54
74958;BME280;63741;42.624;26.276;2023-03-14T09:37:07;99880.56;;;13.53;35.70
74958;BME280;63741;42.624;26.276;2023-03-14T09:39:34;99882.59;;;14.01;34.85
74958;BME280;63741;42.624;26.276;2023-03-14T09:42:04;99879.50;;;14.05;34.41
74958;BME280;63741;42.624;26.276;2023-03-14T09:44:39;99879.84;;;14.12;34.01
74958;BME280;63741;42.624;26.276;2023-03-14T09:47:12;99877.38;;;13.59;34.05
74958;BME280;63741;42.624;26.276;2023-03-14T09:49:42;99873.72;;;13.60;35.10
74958;BME280;63741;42.624;26.276;2023-03-14T09:52:19;99872.28;;;13.77;34.48
74958;BME280;63741;42.624;26.276;2023-03-14T09:54:50;99864.78;;;13.61;34.26
74958;BME280;63741;42.624;26.276;2023-03-14T09:57:21;99861.44;;;13.38;33.54
74958;BME280;63741;42.624;26.276;2023-03-14T09:59:52;99841.84;;;13.60;32.61
74958;BME280;63741;42.624;26.276;2023-03-14T10:02:27;99848.19;;;13.69;32.16
74958;BME280;63741;42.624;26.276;2023-03-14T10:04:55;99851.50;;;14.01;30.94
74958;BME280;63741;42.624;26.276;2023-03-14T10:07:30;99841.69;;;14.02;31.09
74958;BME280;63741;42.624;26.276;2023-03-14T10:09:58;99829.22;;;14.62;31.94
74958;BME280;63741;42.624;26.276;2023-03-14T10:12:37;99824.66;;;14.04;30.67
74958;BME280;63741;42.624;26.276;2023-03-14T10:15:13;99826.94;;;13.78;31.11
74958;BME280;63741;42.624;26.276;2023-03-14T10:17:48;99823.50;;;13.97;31.43
74958;BME280;63741;42.624;26.276;2023-03-14T10:23:02;99816.91;;;14.61;31.82
74958;BME280;63741;42.624;26.276;2023-03-14T10:25:33;99813.25;;;14.72;31.26
74958;BME280;63741;42.624;26.276;2023-03-14T10:28:03;99808.19;;;14.88;30.00
74958;BME280;63741;42.624;26.276;2023-03-14T10:33:08;99797.38;;;14.41;29.85
74958;BME280;63741;42.624;26.276;2023-03-14T10:35:36;99793.94;;;14.60;29.53
74958;BME280;63741;42.624;26.276;2023-03-14T10:38:04;99784.75;;;15.11;30.61
74958;BME280;63741;42.624;26.276;2023-03-14T10:40:38;99785.06;;;15.35;29.69
74958;BME280;63741;42.624;26.276;2023-03-14T10:43:11;99786.53;;;15.57;31.52
74958;BME280;63741;42.624;26.276;2023-03-14T10:45:41;99784.69;;;15.58;30.10
74958;BME280;63741;42.624;26.276;2023-03-14T10:48:35;99774.47;;;15.90;28.91
74958;BME280;63741;42.624;26.276;2023-03-14T10:51:10;99778.31;;;15.78;29.26
74958;BME280;63741;42.624;26.276;2023-03-14T10:53:50;99766.59;;;15.89;28.22
74958;BME280;63741;42.624;26.276;2023-03-14T10:56:23;99753.41;;;15.87;27.54
74958;BME280;63741;42.624;26.276;2023-03-14T10:58:53;99751.13;;;15.92;27.30
74958;BME280;63741;42.624;26.276;2023-03-14T11:01:47;99747.81;;;16.08;25.74
74958;BME280;63741;42.624;26.276;2023-03-14T11:07:28;99742.16;;;16.29;27.52
74958;BME280;63741;42.624;26.276;2023-03-14T11:12:52;99726.06;;;16.57;27.38
74958;BME280;63741;42.624;26.276;2023-03-14T11:23:23;99684.59;;;16.71;25.09
74958;BME280;63741;42.624;26.276;2023-03-14T11:28:58;99674.47;;;17.08;26.71
74958;BME280;63741;42.624;26.276;2023-03-14T11:31:33;99664.13;;;17.13;25.88
74958;BME280;63741;42.624;26.276;2023-03-14T11:34:20;99671.47;;;16.33;26.84
74958;BME280;63741;42.624;26.276;2023-03-14T11:36:55;99658.97;;;16.60;27.88
74958;BME280;63741;42.624;26.276;2023-03-14T11:39:32;99656.09;;;15.91;27.81
74958;BME280;63741;42.624;26.276;2023-03-14T11:42:03;99641.97;;;16.35;26.97
74958;BME280;63741;42.624;26.276;2023-03-14T11:44:37;99621.81;;;17.01;27.11
74958;BME280;63741;42.624;26.276;2023-03-14T11:47:17;99633.25;;;17.11;27.62
74958;BME280;63741;42.624;26.276;2023-03-14T11:49:53;99630.31;;;16.88;26.56
74958;BME280;63741;42.624;26.276;2023-03-14T11:52:42;99622.09;;;16.63;27.43
74958;BME280;63741;42.624;26.276;2023-03-14T11:57:42;99618.13;;;15.80;28.53
74958;BME280;63741;42.624;26.276;2023-03-14T12:00:20;99603.81;;;15.99;28.64
74958;BME280;63741;42.624;26.276;2023-03-14T12:02:56;99598.28;;;16.70;27.94
74958;BME280;63741;42.624;26.276;2023-03-14T12:06:02;99590.78;;;17.08;27.71
74958;BME280;63741;42.624;26.276;2023-03-14T12:14:02;99569.69;;;16.62;26.94
74958;BME280;63741;42.624;26.276;2023-03-14T12:16:35;99563.00;;;16.58;26.68
74958;BME280;63741;42.624;26.276;2023-03-14T12:21:53;99558.50;;;16.33;27.65
74958;BME280;63741;42.624;26.276;2023-03-14T12:24:34;99548.25;;;16.20;27.10
74958;BME280;63741;42.624;26.276;2023-03-14T12:27:04;99546.28;;;15.78;26.99
74958;BME280;63741;42.624;26.276;2023-03-14T12:29:31;99546.66;;;15.83;27.57
74958;BME280;63741;42.624;26.276;2023-03-14T12:32:09;99546.09;;;15.98;26.77
74958;BME280;63741;42.624;26.276;2023-03-14T12:34:47;99541.41;;;16.17;25.84
74958;BME280;63741;42.624;26.276;2023-03-14T12:37:28;99532.47;;;16.61;25.47
74958;BME280;63741;42.624;26.276;2023-03-14T12:40:06;99532.66;;;17.02;24.25
74958;BME280;63741;42.624;26.276;2023-03-14T12:45:30;99516.50;;;17.36;24.60
74958;BME280;63741;42.624;26.276;2023-03-14T12:48:19;99515.19;;;17.56;23.89
74958;BME280;63741;42.624;26.276;2023-03-14T12:56:19;99500.31;;;17.70;23.06
74958;BME280;63741;42.624;26.276;2023-03-14T13:01:47;99488.44;;;18.05;23.80
74958;BME280;63741;42.624;26.276;2023-03-14T13:04:14;99483.59;;;17.84;22.79
74958;BME280;63741;42.624;26.276;2023-03-14T13:06:58;99489.28;;;17.89;23.15
74958;BME280;63741;42.624;26.276;2023-03-14T13:12:03;99480.56;;;17.63;22.60
74958;BME280;63741;42.624;26.276;2023-03-14T13:14:40;99473.06;;;17.66;22.72
74958;BME280;63741;42.624;26.276;2023-03-14T13:17:15;99458.88;;;17.82;22.53
74958;BME280;63741;42.624;26.276;2023-03-14T13:20:09;99456.69;;;17.61;23.15
74958;BME280;63741;42.624;26.276;2023-03-14T13:22:38;99456.19;;;17.82;23.00
74958;BME280;63741;42.624;26.276;2023-03-14T13:25:10;99451.34;;;17.78;24.41
74958;BME280;63741;42.624;26.276;2023-03-14T13:27:37;99454.66;;;17.72;23.24
74958;BME280;63741;42.624;26.276;2023-03-14T13:30:15;99441.13;;;17.49;22.50
74958;BME280;63741;42.624;26.276;2023-03-14T13:32:44;99438.00;;;17.37;23.41
74958;BME280;63741;42.624;26.276;2023-03-14T13:35:42;99436.50;;;16.67;23.70
74958;BME280;63741;42.624;26.276;2023-03-14T13:38:25;99419.25;;;16.88;23.27
74958;BME280;63741;42.624;26.276;2023-03-14T13:40:57;99421.75;;;17.14;22.38
74958;BME280;63741;42.624;26.276;2023-03-14T13:43:33;99424.56;;;16.80;22.90
74958;BME280;63741;42.624;26.276;2023-03-14T13:46:05;99417.75;;;17.02;23.11
74958;BME280;63741;42.624;26.276;2023-03-14T13:48:35;99417.25;;;17.31;24.42
74958;BME280;63741;42.624;26.276;2023-03-14T13:51:09;99416.94;;;17.42;23.04
74958;BME280;63741;42.624;26.276;2023-03-14T13:56:14;99396.00;;;17.54;21.50
74958;BME280;63741;42.624;26.276;2023-03-14T13:58:41;99387.97;;;17.62;22.25
74958;BME280;63741;42.624;26.276;2023-03-14T14:03:44;99373.63;;;17.47;22.05
74958;BME280;63741;42.624;26.276;2023-03-14T14:06:43;99363.31;;;17.19;23.67
74958;BME280;63741;42.624;26.276;2023-03-14T14:09:16;99370.50;;;17.02;24.20
74958;BME280;63741;42.624;26.276;2023-03-14T14:15:12;99354.66;;;16.26;23.52
74958;BME280;63741;42.624;26.276;2023-03-14T14:17:52;99349.72;;;16.63;23.55